Time;durP1;ratioP1;P1;durP2;ratioP2;P2;SDS_P1;SDS_P2;PMS_P1;PMS_P2;Temp;Humidity;BMP_temperature;BMP_pressure;BME280_temperature;BME280_humidity;BME280_pressure;Samples;Min_cycle;Max_cycle;Signal;HPM_P1;HPM_P2
2021/11/22 05:17:06;;;;;;;;;62.00;53.00;;;;;;;;6492164;31;9788;-57
2021/11/22 05:23:09;;;;;;;;;77.00;60.33;;;;;;;;6490023;39;8946;-58
2021/11/22 05:29:12;;;;;;;;;78.00;63.25;;;;;;;;6492783;31;8856;-57
2021/11/22 05:35:14;;;;;;;;;76.25;61.00;;;;;;;;6491198;39;8931;-59
2021/11/22 05:41:18;;;;;;;;;81.75;67.00;;;;;;;;6491213;46;8974;-58
2021/11/22 05:47:20;;;;;;;;;86.00;69.00;;;;;;;;6492602;31;8874;-57
2021/11/22 05:53:23;;;;;;;;;79.25;63.00;;;;;;;;6492143;39;9716;-57
2021/11/22 05:59:26;;;;;;;;;80.00;62.25;;;;;;;;6491348;31;8842;-58
2021/11/22 06:05:28;;;;;;;;;79.75;64.25;;;;;;;;6491055;31;8912;-56
2021/11/22 06:11:30;;;;;;;;;78.50;62.00;;;;;;;;6491759;39;8954;-56
2021/11/22 06:17:32;;;;;;;;;84.25;67.25;;;;;;;;6490944;31;8904;-56
2021/11/22 06:23:34;;;;;;;;;81.00;64.75;;;;;;;;6489297;31;8970;-58
2021/11/22 06:29:38;;;;;;;;;82.25;66.25;;;;;;;;6490102;46;8860;-58
2021/11/22 06:35:44;;;;;;;;;77.50;62.25;;;;;;;;6490148;39;9099;-58
2021/11/22 06:41:48;;;;;;;;;84.50;65.00;;;;;;;;6490982;31;9028;-58
2021/11/22 06:47:50;;;;;;;;;85.25;66.00;;;;;;;;6488941;39;8891;-58
2021/11/22 06:53:53;;;;;;;;;79.50;63.00;;;;;;;;6489086;39;8921;-57
2021/11/22 06:59:56;;;;;;;;;80.00;67.00;;;;;;;;6489409;39;8923;-58
2021/11/22 07:06:00;;;;;;;;;89.25;68.75;;;;;;;;6489000;46;8972;-58
2021/11/22 07:12:06;;;;;;;;;87.00;67.25;;;;;;;;6487157;39;8946;-59
2021/11/22 07:18:08;;;;;;;;;87.50;67.25;;;;;;;;6485530;39;8881;-55
2021/11/22 07:24:11;;;;;;;;;87.75;69.00;;;;;;;;6487501;31;8936;-58
2021/11/22 07:30:21;;;;;;;;;87.50;70.50;;;;;;;;6489750;46;8822;-56
2021/11/22 07:36:25;;;;;;;;;85.25;68.50;;;;;;;;6489370;39;9659;-57
2021/11/22 07:42:29;;;;;;;;;85.00;68.50;;;;;;;;6489134;39;9534;-56
2021/11/22 07:48:33;;;;;;;;;88.50;69.50;;;;;;;;6490674;39;9748;-56
2021/11/22 07:54:35;;;;;;;;;90.00;71.75;;;;;;;;6490604;39;8964;-55
2021/11/22 08:00:38;;;;;;;;;86.00;69.25;;;;;;;;6490345;39;9437;-57
2021/11/22 08:06:45;;;;;;;;;81.75;64.75;;;;;;;;6491279;31;8898;-58
2021/11/22 08:12:54;;;;;;;;;84.75;65.25;;;;;;;;6489636;31;8938;-58
2021/11/22 08:18:56;;;;;;;;;88.00;69.00;;;;;;;;6490318;47;8914;-58
2021/11/22 08:24:59;;;;;;;;;83.00;65.50;;;;;;;;6490950;31;9594;-58
2021/11/22 08:31:03;;;;;;;;;87.75;68.00;;;;;;;;6493336;31;8883;-58
2021/11/22 08:37:06;;;;;;;;;87.75;71.00;;;;;;;;6492284;39;8926;-58
2021/11/22 08:43:15;;;;;;;;;94.25;74.25;;;;;;;;6492156;31;9003;-57
2021/11/22 08:49:18;;;;;;;;;88.25;70.25;;;;;;;;6491287;39;8887;-58
2021/11/22 08:55:22;;;;;;;;;83.50;66.50;;;;;;;;6489870;31;9097;-58
2021/11/22 09:01:29;;;;;;;;;87.50;68.00;;;;;;;;6489814;31;8906;-58
2021/11/22 09:07:36;;;;;;;;;81.25;64.50;;;;;;;;6490567;39;8910;-59
2021/11/22 09:13:39;;;;;;;;;79.25;61.25;;;;;;;;6490026;31;8957;-56
2021/11/22 09:19:43;;;;;;;;;80.00;64.75;;;;;;;;6491139;39;8985;-61
2021/11/22 09:25:51;;;;;;;;;85.50;67.50;;;;;;;;6491667;31;8996;-59
2021/11/22 09:31:54;;;;;;;;;86.25;68.25;;;;;;;;6489383;31;9127;-59
2021/11/22 09:37:58;;;;;;;;;90.50;69.50;;;;;;;;6491424;31;9062;-59
2021/11/22 09:44:01;;;;;;;;;85.50;67.25;;;;;;;;6491669;39;8924;-59
2021/11/22 09:50:07;;;;;;;;;79.75;64.00;;;;;;;;6491980;46;8833;-57
2021/11/22 09:56:10;;;;;;;;;78.50;62.50;;;;;;;;6492003;31;8928;-59
2021/11/22 10:02:14;;;;;;;;;75.75;60.75;;;;;;;;6492247;31;8912;-60
2021/11/22 10:08:22;;;;;;;;;66.25;53.25;;;;;;;;6491623;31;9654;-59
2021/11/22 10:14:33;;;;;;;;;71.00;56.50;;;;;;;;6488966;39;8931;-60
2021/11/22 10:20:38;;;;;;;;;71.50;57.00;;;;;;;;6491804;31;8824;-58
2021/11/22 10:26:49;;;;;;;;;64.75;54.75;;;;;;;;6490725;39;8888;-59
2021/11/22 10:32:57;;;;;;;;;63.00;52.00;;;;;;;;6490486;46;8961;-58
2021/11/22 10:39:04;;;;;;;;;65.25;53.00;;;;;;;;6490794;31;8933;-59
2021/11/22 10:45:32;;;;;;;;;60.50;50.25;;;;;;;;6491073;39;8941;-59
2021/11/22 10:51:40;;;;;;;;;57.50;47.75;;;;;;;;6491810;31;8981;-57
2021/11/22 10:57:48;;;;;;;;;65.25;52.00;;;;;;;;6489658;39;8948;-58
2021/11/22 11:04:21;;;;;;;;;42.50;36.00;;;;;;;;6491616;31;8835;-61
2021/11/22 11:10:25;;;;;;;;;62.75;52.50;;;;;;;;6491169;39;8838;-59
2021/11/22 11:16:28;;;;;;;;;54.00;44.75;;;;;;;;6491116;39;9049;-57
2021/11/22 11:22:32;;;;;;;;;56.50;45.75;;;;;;;;6491175;39;8942;-57
2021/11/22 11:28:38;;;;;;;;;49.50;41.75;;;;;;;;6490337;46;8868;-57
2021/11/22 11:34:45;;;;;;;;;41.50;38.25;;;;;;;;6491152;39;8900;-58
2021/11/22 11:41:03;;;;;;;;;47.50;41.00;;;;;;;;6490316;31;8872;-58
2021/11/22 11:47:06;;;;;;;;;53.50;43.25;;;;;;;;6491254;39;8875;-57
2021/11/22 11:53:18;;;;;;;;;48.75;40.50;;;;;;;;6490111;39;8970;-58
2021/11/22 11:59:29;;;;;;;;;34.67;30.67;;;;;;;;6489444;31;8919;-60
2021/11/22 12:05:54;;;;;;;;;49.25;40.00;;;;;;;;6491209;39;8924;-58
2021/11/22 12:12:21;;;;;;;;;37.50;34.75;;;;;;;;6489462;31;8896;-58
2021/11/22 12:18:23;;;;;;;;;48.50;40.00;;;;;;;;6490953;39;8875;-57
2021/11/22 12:24:38;;;;;;;;;51.25;43.75;;;;;;;;6490546;39;8891;-57
2021/11/22 12:31:09;;;;;;;;;45.00;39.25;;;;;;;;6491132;31;8832;-56
2021/11/22 12:37:43;;;;;;;;;45.00;39.75;;;;;;;;6489797;47;8986;-58
2021/11/22 12:43:51;;;;;;;;;44.00;37.75;;;;;;;;6489815;47;8860;-57
2021/11/22 12:50:09;;;;;;;;;45.25;38.50;;;;;;;;6490236;31;8899;-58
2021/11/22 12:56:12;;;;;;;;;46.00;40.25;;;;;;;;6491065;31;8998;-58
2021/11/22 13:02:43;;;;;;;;;50.25;38.00;;;;;;;;6490805;31;8816;-58
2021/11/22 13:09:11;;;;;;;;;40.50;37.00;;;;;;;;6485886;31;8980;-56
2021/11/22 13:22:02;;;;;;;;;39.50;37.25;;;;;;;;6491050;31;8891;-57
2021/11/22 13:28:14;;;;;;;;;44.75;38.00;;;;;;;;6491122;39;8926;-55
2021/11/22 13:34:38;;;;;;;;;41.50;36.25;;;;;;;;6489744;31;8937;-58
2021/11/22 13:40:43;;;;;;;;;34.25;30.75;;;;;;;;6490991;31;8847;-57
2021/11/22 13:46:50;;;;;;;;;36.50;30.00;;;;;;;;6491300;39;8893;-57
2021/11/22 13:52:57;;;;;;;;;42.00;37.75;;;;;;;;6491937;31;9000;-58
2021/11/22 13:59:00;;;;;;;;;40.00;35.50;;;;;;;;6491030;39;8972;-58
2021/11/22 14:05:03;;;;;;;;;36.75;26.00;;;;;;;;6492292;31;9019;-54
2021/11/22 14:11:20;;;;;;;;;43.50;38.50;;;;;;;;6492614;46;8954;-56
2021/11/22 14:17:23;;;;;;;;;41.75;39.25;;;;;;;;6491415;39;9033;-55
2021/11/22 14:23:32;;;;;;;;;43.00;38.50;;;;;;;;6492921;31;8860;-56
2021/11/22 14:29:35;;;;;;;;;51.25;45.50;;;;;;;;6490817;46;9051;-54
2021/11/22 14:35:43;;;;;;;;;42.50;37.25;;;;;;;;6491002;31;8908;-57
2021/11/22 14:41:48;;;;;;;;;46.50;42.00;;;;;;;;6490339;39;8836;-52
2021/11/22 14:47:53;;;;;;;;;45.50;41.25;;;;;;;;6489800;39;8941;-55
2021/11/22 14:54:04;;;;;;;;;40.25;37.00;;;;;;;;6488864;31;8944;-57
2021/11/22 15:00:07;;;;;;;;;41.75;38.25;;;;;;;;6489487;31;8884;-58
2021/11/22 15:06:29;;;;;;;;;54.50;46.00;;;;;;;;6489032;39;8898;-57
2021/11/22 15:12:34;;;;;;;;;42.75;40.75;;;;;;;;6488393;46;8941;-58
2021/11/22 15:18:37;;;;;;;;;43.00;37.75;;;;;;;;6488531;46;8938;-57
2021/11/22 15:24:39;;;;;;;;;57.00;46.00;;;;;;;;6489214;46;8878;-57
2021/11/22 15:30:45;;;;;;;;;56.50;48.25;;;;;;;;6489633;46;8870;-57
2021/11/22 15:36:51;;;;;;;;;57.00;45.50;;;;;;;;6490074;39;9014;-56
2021/11/22 15:42:53;;;;;;;;;47.00;41.25;;;;;;;;6490333;31;8881;-55
2021/11/22 15:48:56;;;;;;;;;55.00;46.25;;;;;;;;6489403;39;8953;-56
2021/11/22 15:54:58;;;;;;;;;57.50;46.00;;;;;;;;6489344;39;8883;-55
2021/11/22 16:01:01;;;;;;;;;56.50;48.25;;;;;;;;6490598;39;8897;-55
2021/11/22 16:07:03;;;;;;;;;51.75;43.75;;;;;;;;6490610;31;8874;-56
2021/11/22 16:13:06;;;;;;;;;61.50;50.75;;;;;;;;6488856;46;8976;-56
2021/11/22 16:19:27;;;;;;;;;57.25;47.00;;;;;;;;6489126;39;9034;-56
2021/11/22 16:25:29;;;;;;;;;57.50;44.75;;;;;;;;6489867;31;8865;-56
2021/11/22 16:31:34;;;;;;;;;57.75;46.25;;;;;;;;6490281;39;8856;-58
2021/11/22 16:37:37;;;;;;;;;58.50;46.50;;;;;;;;6488450;39;8963;-57
2021/11/22 16:43:40;;;;;;;;;69.75;54.00;;;;;;;;6490400;39;8926;-59
2021/11/22 16:49:46;;;;;;;;;67.25;53.00;;;;;;;;6491348;31;8840;-56
2021/11/22 16:55:48;;;;;;;;;68.00;56.50;;;;;;;;6491541;46;8892;-57
2021/11/22 17:01:51;;;;;;;;;75.00;59.00;;;;;;;;6491839;31;9550;-56
2021/11/22 17:08:01;;;;;;;;;82.50;63.00;;;;;;;;6491387;39;8970;-54
2021/11/22 17:14:07;;;;;;;;;80.00;62.25;;;;;;;;6491131;39;9675;-55
2021/11/22 17:20:11;;;;;;;;;72.75;56.50;;;;;;;;6491353;39;8903;-57
2021/11/22 17:26:13;;;;;;;;;68.25;52.75;;;;;;;;6492249;31;8842;-55
2021/11/22 17:32:17;;;;;;;;;73.33;60.67;;;;;;;;6490684;31;8879;-56
2021/11/22 17:38:20;;;;;;;;;81.00;63.25;;;;;;;;6491611;39;8934;-55
2021/11/22 17:44:23;;;;;;;;;85.00;68.75;;;;;;;;6491847;39;8889;-56
2021/11/22 17:50:27;;;;;;;;;100.25;79.50;;;;;;;;6489619;39;9020;-58
2021/11/22 17:56:31;;;;;;;;;102.00;89.75;;;;;;;;6490237;46;8900;-56
2021/11/22 18:02:33;;;;;;;;;104.67;90.67;;;;;;;;6490486;31;8905;-57
2021/11/22 18:08:36;;;;;;;;;103.00;89.00;;;;;;;;6490508;31;9035;-53
2021/11/22 18:14:42;;;;;;;;;97.25;85.25;;;;;;;;6490964;39;9058;-56
2021/11/22 18:20:46;;;;;;;;;94.25;78.00;;;;;;;;6490434;46;8907;-57
2021/11/22 18:26:48;;;;;;;;;97.00;82.75;;;;;;;;6490901;39;8950;-57
2021/11/22 18:32:50;;;;;;;;;81.75;60.75;;;;;;;;6489958;39;9123;-55
2021/11/22 18:38:52;;;;;;;;;87.50;66.25;;;;;;;;6490001;39;8897;-55
2021/11/22 18:44:56;;;;;;;;;89.00;71.00;;;;;;;;6491018;39;8875;-55
2021/11/22 18:51:00;;;;;;;;;93.25;70.00;;;;;;;;6490844;39;8863;-53
2021/11/22 18:57:02;;;;;;;;;91.00;71.25;;;;;;;;6490275;39;8944;-56
2021/11/22 19:03:06;;;;;;;;;90.50;69.75;;;;;;;;6489732;39;9366;-58
2021/11/22 19:09:09;;;;;;;;;98.50;77.50;;;;;;;;6489487;39;8991;-56
2021/11/22 19:15:12;;;;;;;;;88.50;69.50;;;;;;;;6489293;46;8985;-58
2021/11/22 19:21:15;;;;;;;;;91.50;69.25;;;;;;;;6490007;39;8899;-55
2021/11/22 19:27:18;;;;;;;;;93.50;75.50;;;;;;;;6490492;39;8933;-56
2021/11/22 19:33:22;;;;;;;;;94.75;74.25;;;;;;;;6489131;39;8974;-57
2021/11/22 19:39:24;;;;;;;;;96.00;80.50;;;;;;;;6491053;39;8932;-56
2021/11/22 19:45:27;;;;;;;;;96.50;77.75;;;;;;;;6490379;39;8875;-56
2021/11/22 19:51:29;;;;;;;;;99.50;79.75;;;;;;;;6489941;39;9904;-57
2021/11/22 19:57:34;;;;;;;;;94.00;76.50;;;;;;;;6490080;39;9534;-54
2021/11/22 20:03:37;;;;;;;;;96.75;77.25;;;;;;;;6488452;46;8901;-58
2021/11/22 20:09:40;;;;;;;;;94.00;71.25;;;;;;;;6489651;39;8895;-56
2021/11/22 20:15:43;;;;;;;;;97.50;74.75;;;;;;;;6489437;39;8910;-55
2021/11/22 20:21:46;;;;;;;;;94.00;74.50;;;;;;;;6489461;39;8938;-56
2021/11/22 20:27:49;;;;;;;;;92.75;71.50;;;;;;;;6490584;39;8822;-55
2021/11/22 20:33:51;;;;;;;;;90.33;68.67;;;;;;;;6489003;46;8911;-56
2021/11/22 20:39:54;;;;;;;;;93.25;70.25;;;;;;;;6490447;39;8858;-58
2021/11/22 20:45:58;;;;;;;;;93.00;74.50;;;;;;;;6489129;39;8831;-56
2021/11/22 20:52:01;;;;;;;;;92.25;72.25;;;;;;;;6489182;47;8870;-55
2021/11/22 20:58:04;;;;;;;;;93.67;74.67;;;;;;;;6489873;31;9002;-56
2021/11/22 21:04:08;;;;;;;;;84.75;68.25;;;;;;;;6488902;47;8902;-57
2021/11/22 21:10:18;;;;;;;;;91.25;69.00;;;;;;;;6488240;47;8914;-57
2021/11/22 21:16:26;;;;;;;;;92.25;71.75;;;;;;;;6488685;39;9130;-56
2021/11/22 21:22:28;;;;;;;;;94.00;72.00;;;;;;;;6488927;47;8907;-57
2021/11/22 21:28:30;;;;;;;;;86.75;69.50;;;;;;;;6489694;39;8977;-57
2021/11/22 21:34:35;;;;;;;;;49.25;43.25;;;;;;;;6490333;39;8997;-56
2021/11/22 21:40:40;;;;;;;;;93.00;72.50;;;;;;;;6491089;39;8886;-56
2021/11/22 21:46:44;;;;;;;;;86.50;67.50;;;;;;;;6490809;39;8879;-56
2021/11/22 21:52:53;;;;;;;;;89.00;68.00;;;;;;;;6491355;39;8851;-57
2021/11/22 21:58:55;;;;;;;;;90.75;68.50;;;;;;;;6491198;39;8832;-56
2021/11/22 22:04:59;;;;;;;;;85.00;65.25;;;;;;;;6491073;39;8876;-56
2021/11/22 22:11:03;;;;;;;;;81.00;64.50;;;;;;;;6491087;39;8868;-55
2021/11/22 22:17:06;;;;;;;;;84.00;66.75;;;;;;;;6490980;39;8926;-58
2021/11/22 22:23:10;;;;;;;;;81.50;63.75;;;;;;;;6489899;46;8962;-58
2021/11/22 22:29:13;;;;;;;;;81.25;62.75;;;;;;;;6491016;31;8890;-57
2021/11/22 22:35:18;;;;;;;;;81.00;65.00;;;;;;;;6490693;31;8975;-56
2021/11/22 22:41:21;;;;;;;;;84.00;67.25;;;;;;;;6490500;39;8921;-55
2021/11/22 22:47:24;;;;;;;;;79.25;62.75;;;;;;;;6491321;39;8916;-56
2021/11/22 22:53:27;;;;;;;;;87.25;68.50;;;;;;;;6490615;31;8933;-54
2021/11/22 22:59:39;;;;;;;;;84.75;66.25;;;;;;;;6490742;39;8883;-54
2021/11/22 23:05:41;;;;;;;;;88.25;68.00;;;;;;;;6490919;39;8858;-58
2021/11/22 23:11:43;;;;;;;;;86.75;67.50;;;;;;;;6490754;39;8942;-56
2021/11/22 23:17:45;;;;;;;;;74.25;56.00;;;;;;;;6490401;31;9056;-55
2021/11/22 23:23:48;;;;;;;;;88.00;70.50;;;;;;;;6490649;39;8950;-56
2021/11/22 23:29:51;;;;;;;;;91.00;67.50;;;;;;;;6491082;39;8870;-57
2021/11/22 23:35:54;;;;;;;;;92.75;70.00;;;;;;;;6489775;46;8959;-57
2021/11/22 23:41:57;;;;;;;;;88.25;70.00;;;;;;;;6490542;31;8897;-57
2021/11/22 23:48:00;;;;;;;;;86.50;71.00;;;;;;;;6490079;46;8855;-56
2021/11/22 23:54:04;;;;;;;;;88.75;70.25;;;;;;;;6489858;39;8873;-57
